Time;durP1;ratioP1;P1;durP2;ratioP2;P2;SDS_P1;SDS_P2;PMS_P1;PMS_P2;Temp;Humidity;BMP_temperature;BMP_pressure;BME280_temperature;BME280_humidity;BME280_pressure;Samples;Min_cycle;Max_cycle;Signal;HPM_P1;HPM_P2
2023/10/11 08:26:46;;;;;;;21.70;3.30;;;;;;;6.88;57.44;100202.53;3446406;23;20054;-87
2023/10/11 08:29:28;;;;;;;8.05;2.88;;;;;;;6.78;56.02;100174.22;4898209;29;20065;-92
2023/10/11 08:32:14;;;;;;;3.45;2.00;;;;;;;6.77;55.56;100153.56;4892413;29;20047;-92
2023/10/11 08:34:47;;;;;;;6.38;2.78;;;;;;;6.71;55.84;100151.91;4899712;29;20044;-89
2023/10/11 08:37:15;;;;;;;6.68;2.10;;;;;;;6.97;56.10;100182.72;4901296;29;20035;-91
2023/10/11 08:39:44;;;;;;;4.85;2.65;;;;;;;7.09;55.87;100184.41;4869610;29;20041;-91
2023/10/11 08:42:18;;;;;;;10.00;2.65;;;;;;;6.89;56.02;100156.06;4873296;29;20098;-92
2023/10/11 08:45:00;;;;;;;9.68;2.53;;;;;;;7.19;55.68;100168.91;4899721;29;20044;-91
2023/10/11 08:47:33;;;;;;;2.65;1.83;;;;;;;6.87;55.63;100113.94;4900917;29;20053;-91
2023/10/11 08:50:08;;;;;;;6.78;2.15;;;;;;;7.39;54.24;100178.19;4888795;29;20130;-91
2023/10/11 08:52:34;;;;;;;3.13;1.73;;;;;;;7.21;53.56;100155.03;4889295;29;20430;-92
2023/10/11 08:55:19;;;;;;;3.75;2.10;;;;;;;7.13;53.49;100144.69;4919574;29;20021;-92
2023/10/11 08:57:56;;;;;;;3.45;1.90;;;;;;;6.99;54.02;100100.91;4887863;29;20116;-93
2023/10/11 09:00:31;;;;;;;3.00;1.80;;;;;;;7.49;53.86;100153.72;4872398;29;20057;-94
2023/10/11 09:17:22;;;;;;;3.75;1.75;;;;;;;7.44;50.85;100121.03;4936026;29;20521;-89
2023/10/11 09:20:23;;;;;;;2.45;1.50;;;;;;;7.38;51.33;100094.94;4873441;29;20121;-89
2023/10/11 09:23:00;;;;;;;3.45;2.10;;;;;;;7.34;52.06;100056.59;4892612;29;20103;-87
2023/10/11 09:25:33;;;;;;;3.83;2.15;;;;;;;7.95;50.98;100140.88;4878843;29;20063;-90
2023/10/11 09:27:59;;;;;;;3.15;1.60;;;;;;;7.94;50.71;100141.94;4880116;29;20087;-89
2023/10/11 09:33:53;;;;;;;4.45;2.00;;;;;;;8.20;49.51;100145.44;4892282;29;20052;-88
2023/10/11 09:36:28;;;;;;;11.45;3.95;;;;;;;8.34;49.56;100139.41;4828537;29;20118;-90
2023/10/11 09:38:56;;;;;;;6.72;3.13;;;;;;;8.39;48.89;100145.69;4822474;29;20082;-88
2023/10/11 09:41:28;;;;;;;11.73;2.00;;;;;;;8.29;47.29;100125.81;4846366;29;20122;-89
2023/10/11 09:43:59;;;;;;;3.28;1.92;;;;;;;8.18;47.78;100111.41;4821621;29;20038;-88
2023/10/11 09:46:34;;;;;;;15.00;4.57;;;;;;;8.15;47.43;100103.81;4842066;29;20046;-88
2023/10/11 09:49:15;;;;;;;12.35;4.07;;;;;;;8.07;47.33;100091.53;4862030;29;20250;-89
2023/10/11 09:52:07;;;;;;;7.00;3.30;;;;;;;7.78;47.47;100039.63;4839064;29;20049;-89
2023/10/11 09:57:56;;;;;;;4.28;1.95;;;;;;;8.54;47.63;100112.09;4907084;29;20048;-88
2023/10/11 10:01:07;;;;;;;6.20;2.42;;;;;;;8.34;47.14;100076.75;4865926;29;20063;-89
2023/10/11 10:03:52;;;;;;;4.53;3.00;;;;;;;8.24;47.26;100043.03;4901960;29;20040;-90
2023/10/11 10:06:26;;;;;;;4.72;2.90;;;;;;;8.73;47.25;100095.13;4903366;29;20040;-89
2023/10/11 10:09:23;;;;;;;5.53;2.47;;;;;;;8.34;47.60;100033.97;4846693;29;20045;-88
2023/10/11 10:12:22;;;;;;;7.95;3.40;;;;;;;8.93;47.41;100081.34;4868585;29;20084;-87
2023/10/11 10:15:13;;;;;;;3.85;2.25;;;;;;;8.89;45.68;100088.47;4838191;29;20115;-88
2023/10/11 10:18:03;;;;;;;5.13;2.30;;;;;;;8.92;46.41;100088.72;4856918;29;20045;-88
2023/10/11 10:20:43;;;;;;;4.00;2.28;;;;;;;8.92;45.52;100068.81;4850299;29;20042;-88
2023/10/11 10:23:15;;;;;;;4.40;1.90;;;;;;;8.84;44.27;100062.06;4836977;29;20546;-89
2023/10/11 10:26:06;;;;;;;7.65;2.58;;;;;;;8.51;44.03;99998.22;4842526;29;20034;-89
2023/10/11 10:28:36;;;;;;;7.65;2.80;;;;;;;8.91;43.65;100061.75;4849592;29;20050;-89
2023/10/11 10:31:09;;;;;;;7.35;2.65;;;;;;;8.87;44.00;100066.97;4850868;29;20566;-88
2023/10/11 10:33:38;;;;;;;3.83;2.22;;;;;;;8.94;44.21;100066.63;4824629;29;20498;-88
2023/10/11 10:36:22;;;;;;;13.73;4.47;;;;;;;9.01;43.48;100060.84;4831125;29;20053;-87
2023/10/11 10:41:37;;;;;;;4.18;2.33;;;;;;;8.67;43.24;100001.63;4833801;29;20061;-89
2023/10/11 10:44:18;;;;;;;6.68;2.60;;;;;;;8.45;43.69;99955.75;4862003;29;20109;-90
2023/10/11 10:47:13;;;;;;;8.63;3.55;;;;;;;8.43;45.02;99963.38;4845159;29;20022;-88
2023/10/11 10:49:47;;;;;;;8.25;3.78;;;;;;;8.90;42.74;100055.44;4847175;29;20067;-89
2023/10/11 10:52:22;;;;;;;6.40;3.05;;;;;;;8.97;43.70;100032.50;4812360;29;20114;-90
2023/10/11 10:55:02;;;;;;;9.02;3.90;;;;;;;9.02;42.43;100041.47;4815373;29;20030;-90
2023/10/11 10:57:31;;;;;;;6.40;3.05;;;;;;;8.64;43.71;99974.94;4795884;29;20547;-94
2023/10/11 11:00:05;;;;;;;6.32;3.30;;;;;;;8.52;45.10;99937.19;4816895;29;20057;-92
2023/10/11 11:02:43;;;;;;;6.65;2.97;;;;;;;8.57;43.19;99928.13;4825374;29;20169;-93
2023/10/11 11:05:14;;;;;;;6.18;3.00;;;;;;;8.68;42.12;99963.22;4837841;29;20041;-92
2023/10/11 11:07:47;;;;;;;5.75;3.30;;;;;;;8.47;42.22;99943.47;4810161;29;20050;-93
2023/10/11 11:10:30;;;;;;;5.13;2.60;;;;;;;8.85;42.46;100008.34;4817365;29;20061;-92
2023/10/11 11:13:22;;;;;;;6.32;2.58;;;;;;;8.64;43.48;99974.94;4860895;29;20046;-92
2023/10/11 11:15:55;;;;;;;6.15;2.25;;;;;;;8.64;43.42;99981.25;4842216;29;20050;-89
2023/10/11 11:27:25;;;;;;;3.08;2.03;;;;;;;9.23;44.19;100020.28;4901425;23;20109;-91
2023/10/11 11:30:17;;;;;;;5.95;2.25;;;;;;;9.35;44.57;100012.53;4887275;29;20056;-92
2023/10/11 11:39:52;;;;;;;6.43;3.40;;;;;;;9.53;46.08;100005.53;5197590;23;20055;-86
2023/10/11 11:42:55;;;;;;;6.00;3.45;;;;;;;9.24;42.15;99925.59;4882523;29;20033;-89
2023/10/11 11:46:01;;;;;;;4.35;2.55;;;;;;;9.67;41.62;100011.13;4912012;29;20044;-89
2023/10/11 11:51:19;;;;;;;5.03;2.28;;;;;;;8.95;41.40;99899.19;5394846;23;20048;-90
2023/10/11 11:53:45;;;;;;;4.10;2.13;;;;;;;9.00;41.81;99912.75;4924274;29;20020;-89
2023/10/11 11:56:55;;;;;;;12.40;2.65;;;;;;;9.23;41.75;99960.28;4933861;29;20027;-94
2023/10/11 11:59:44;;;;;;;9.82;2.70;;;;;;;9.21;41.52;99926.22;4928218;29;20048;-89
2023/10/11 12:05:40;;;;;;;6.85;2.50;;;;;;;9.48;41.51;99975.56;5052187;23;20060;-89
2023/10/11 12:08:49;;;;;;;8.25;2.70;;;;;;;9.09;42.13;99899.31;4915038;29;20087;-91
2023/10/11 12:11:31;;;;;;;8.43;3.17;;;;;;;9.27;41.69;99895.84;4889026;29;20052;-91
2023/10/11 12:17:32;;;;;;;4.60;2.00;;;;;;;9.65;41.64;99951.34;4956258;23;20076;-92
2023/10/11 12:20:12;;;;;;;5.40;2.28;;;;;;;9.59;41.99;99948.97;4917481;29;20052;-88
2023/10/11 12:22:43;;;;;;;5.72;1.92;;;;;;;9.61;41.70;99961.22;4937768;29;20160;-89
2023/10/11 12:25:10;;;;;;;4.68;2.20;;;;;;;9.50;41.65;99951.50;4937099;29;20055;-93
2023/10/11 12:27:40;;;;;;;;;;;;;;;9.60;41.53;99959.63;4906443;29;20046;-92
2023/10/11 12:30:19;;;;;;;6.97;2.95;;;;;;;9.33;42.27;99902.06;4914120;29;19927;-88
2023/10/11 12:33:08;;;;;;;83.38;30.50;;;;;;;9.22;41.79;99884.19;4893922;29;20035;-90
2023/10/11 12:35:45;;;;;;;31.00;11.40;;;;;;;9.52;41.96;99953.97;4859271;29;20051;-90
2023/10/11 12:38:14;;;;;;;14.30;4.40;;;;;;;9.15;41.67;99920.81;4908783;29;20050;-91
2023/10/11 12:41:00;;;;;;;11.80;2.60;;;;;;;9.06;42.31;99936.16;4928449;29;20047;-89
2023/10/11 12:43:41;;;;;;;10.30;2.53;;;;;;;8.68;43.00;99880.63;4926194;29;20044;-90
2023/10/11 12:46:07;;;;;;;4.95;2.40;;;;;;;8.93;43.31;99915.00;4898984;29;20031;-90
2023/10/11 12:48:37;;;;;;;;;;;;;;;9.03;43.61;99933.19;4893378;29;20021;-90
2023/10/11 12:51:05;;;;;;;10.43;3.80;;;;;;;8.76;44.66;99890.91;4918119;29;19979;-90
2023/10/11 12:53:33;;;;;;;7.85;3.08;;;;;;;8.99;44.14;99929.41;4909184;29;20082;-91
2023/10/11 12:56:09;;;;;;;6.30;2.70;;;;;;;8.82;43.28;99892.50;4891907;29;20041;-90
2023/10/11 12:58:50;;;;;;;5.72;2.88;;;;;;;8.50;43.27;99832.28;4892829;29;20028;-90
2023/10/11 13:01:36;;;;;;;7.38;3.00;;;;;;;8.68;43.58;99862.38;4923929;29;20045;-90
2023/10/11 13:05:26;;;;;;;4.72;2.42;;;;;;;8.82;44.40;99851.59;4908686;29;20028;-92
2023/10/11 13:08:24;;;;;;;4.70;1.70;;;;;;;8.96;43.19;99862.63;4865707;29;20034;-90
2023/10/11 13:19:37;;;;;;;7.15;2.28;;;;;;;8.97;42.94;99866.97;4901981;29;20045;-88
2023/10/11 13:22:14;;;;;;;6.18;2.10;;;;;;;9.03;43.55;99870.47;4888249;29;20057;-89
2023/10/11 13:24:41;;;;;;;4.60;2.05;;;;;;;8.91;43.20;99871.69;4869527;29;20029;-89
2023/10/11 13:27:09;;;;;;;25.60;8.80;;;;;;;8.66;43.21;99823.69;4856214;29;20057;-87
2023/10/11 13:30:02;;;;;;;14.25;6.00;;;;;;;9.02;42.96;99866.13;4885377;29;20045;-90
2023/10/11 13:33:05;;;;;;;18.15;3.55;;;;;;;8.97;43.89;99858.78;4884016;29;20091;-91
2023/10/11 13:36:39;;;;;;;11.52;4.25;;;;;;;8.45;44.09;99790.38;4913832;29;20056;-89
2023/10/11 13:40:14;;;;;;;7.40;3.63;;;;;;;8.44;43.36;99824.16;4847385;29;20061;-89
2023/10/11 13:45:42;;;;;;;14.70;6.13;;;;;;;8.43;44.78;99849.78;4900544;29;20045;-89
2023/10/11 13:48:14;;;;;;;7.05;2.83;;;;;;;8.23;44.51;99818.03;4887136;29;20037;-89
2023/10/11 13:50:51;;;;;;;5.07;2.55;;;;;;;7.97;45.18;99781.22;4865236;29;20052;-89
2023/10/11 13:53:27;;;;;;;6.25;2.63;;;;;;;7.68;45.41;99724.00;4897745;29;20029;-91
2023/10/11 13:56:46;;;;;;;10.70;2.70;;;;;;;8.19;45.14;99829.78;4910745;29;20044;-90
2023/10/11 14:03:46;;;;;;;7.63;2.95;;;;;;;8.13;46.26;99818.13;1028900;23;20117;-88
2023/10/11 14:06:35;;;;;;;8.10;2.10;;;;;;;8.06;46.50;99817.63;4861091;29;20057;-90
2023/10/11 14:09:21;;;;;;;5.07;2.33;;;;;;;7.90;46.13;99802.50;4851710;29;20037;-93
2023/10/11 14:11:49;;;;;;;9.05;2.70;;;;;;;7.79;47.06;99768.31;4854015;29;20053;-90
2023/10/11 14:14:24;;;;;;;4.60;2.30;;;;;;;7.91;46.29;99795.94;4865016;29;20078;-92
2023/10/11 14:16:56;;;;;;;5.97;2.10;;;;;;;7.75;46.81;99777.03;4882434;29;20053;-92
2023/10/11 14:19:27;;;;;;;8.95;2.75;;;;;;;8.10;48.37;99806.97;4860906;29;20064;-91
2023/10/11 14:22:00;;;;;;;12.25;3.20;;;;;;;8.03;49.09;99782.00;4882393;29;20097;-90
2023/10/11 14:24:28;;;;;;;8.15;3.15;;;;;;;8.12;48.22;99786.53;4866226;29;20056;-89
2023/10/11 14:27:02;;;;;;;9.20;4.22;;;;;;;7.92;49.66;99745.88;4870591;29;20057;-91
2023/10/11 14:29:33;;;;;;;5.10;3.10;;;;;;;8.22;48.37;99791.09;4828970;29;20054;-91
2023/10/11 14:32:19;;;;;;;4.15;2.45;;;;;;;8.26;48.21;99807.69;4834005;29;20091;-92
2023/10/11 14:34:54;;;;;;;11.52;2.38;;;;;;;7.50;47.45;99709.19;4810494;29;20050;-93
2023/10/11 14:37:22;;;;;;;7.35;2.63;;;;;;;7.96;47.44;99779.59;4822794;29;20063;-88
2023/10/11 14:40:14;;;;;;;11.43;4.97;;;;;;;8.11;48.47;99784.94;4812977;29;20062;-94
2023/10/11 14:42:48;;;;;;;7.63;2.65;;;;;;;7.55;47.83;99717.31;4818747;29;20144;-93
2023/10/11 14:45:26;;;;;;;8.43;3.00;;;;;;;7.98;48.09;99777.41;4829190;29;20046;-90
2023/10/11 14:47:56;;;;;;;8.85;3.53;;;;;;;7.40;48.56;99677.41;4793729;29;20057;-93
2023/10/11 14:50:44;;;;;;;9.50;2.72;;;;;;;7.95;49.08;99776.06;4820454;29;20055;-93
2023/10/11 14:53:34;;;;;;;3.83;2.53;;;;;;;7.65;48.55;99739.00;4824022;29;20055;-93
2023/10/11 14:56:09;;;;;;;11.32;2.67;;;;;;;7.99;48.78;99768.94;4814687;29;20042;-91
2023/10/11 14:58:50;;;;;;;7.88;2.80;;;;;;;7.76;48.51;99765.03;4811675;29;20046;-91
2023/10/11 15:01:35;;;;;;;5.35;2.72;;;;;;;7.26;49.36;99696.28;4845631;29;20114;-87
2023/10/11 15:04:32;;;;;;;8.10;2.50;;;;;;;7.61;49.88;99732.47;4853304;29;20052;-91
2023/10/11 15:08:08;;;;;;;11.00;4.20;;;;;;;7.73;49.88;99737.56;4915477;29;20041;-91
2023/10/11 15:11:29;;;;;;;12.40;4.82;;;;;;;7.71;49.33;99740.56;4914281;29;20052;-92
2023/10/11 15:13:57;;;;;;;;;;;;;;;7.74;50.17;99742.72;4902995;29;20108;-93
2023/10/11 15:16:27;;;;;;;15.98;6.95;;;;;;;7.71;49.66;99726.16;4900303;29;19923;-88
2023/10/11 15:18:53;;;;;;;11.70;4.75;;;;;;;7.44;50.12;99658.63;4908909;29;20051;-89
2023/10/11 15:21:25;;;;;;;12.45;5.40;;;;;;;7.51;50.24;99670.00;4898303;29;20503;-90
2023/10/11 15:23:51;;;;;;;7.80;3.60;;;;;;;7.55;49.58;99690.13;4876171;29;20052;-89
2023/10/11 15:26:43;;;;;;;12.50;3.85;;;;;;;7.74;50.63;99707.34;4893114;29;20041;-90
2023/10/11 15:29:09;;;;;;;6.93;3.10;;;;;;;7.50;50.35;99668.38;4892638;29;20056;-89
2023/10/11 15:31:55;;;;;;;14.50;4.95;;;;;;;7.82;50.13;99686.91;4828250;29;20049;-90
2023/10/11 15:34:22;;;;;;;10.98;3.33;;;;;;;7.20;50.16;99607.66;4843599;29;20064;-92
2023/10/11 15:36:49;;;;;;;10.98;3.75;;;;;;;7.14;51.00;99614.25;4807967;29;20045;-92
2023/10/11 15:39:16;;;;;;;5.97;2.85;;;;;;;6.95;50.77;99592.34;4841688;29;20432;-91
2023/10/11 15:41:43;;;;;;;6.18;2.25;;;;;;;7.13;50.88;99630.84;4841904;29;20049;-92
2023/10/11 15:44:15;;;;;;;3.05;2.00;;;;;;;7.27;50.55;99656.28;4856204;29;20076;-91
2023/10/11 15:46:42;;;;;;;7.18;2.35;;;;;;;7.30;50.87;99667.41;4825056;29;20196;-91
2023/10/11 15:49:11;;;;;;;20.77;2.75;;;;;;;7.13;50.28;99642.53;4815821;29;20054;-92
2023/10/11 15:51:40;;;;;;;6.78;2.45;;;;;;;7.02;50.34;99622.75;4806994;29;20154;-91
2023/10/11 15:54:07;;;;;;;5.78;2.78;;;;;;;7.15;50.50;99650.38;4851616;29;20034;-91
2023/10/11 15:56:33;;;;;;;10.68;2.30;;;;;;;6.95;50.35;99596.97;4797339;30;20048;-91
2023/10/11 15:59:02;;;;;;;12.38;3.10;;;;;;;6.88;50.68;99583.69;4754867;30;20040;-92
2023/10/11 16:01:34;;;;;;;7.75;2.65;;;;;;;7.24;50.51;99646.78;4769246;30;20048;-93
2023/10/11 16:04:05;;;;;;;9.32;2.83;;;;;;;6.59;50.96;99540.16;4755846;30;20135;-92
2023/10/11 16:06:37;;;;;;;5.22;2.20;;;;;;;7.25;50.55;99645.72;4777307;30;20098;-90
2023/10/11 16:09:11;;;;;;;12.90;3.22;;;;;;;7.12;50.76;99605.56;4799152;29;20630;-91
2023/10/11 16:11:41;;;;;;;9.50;2.50;;;;;;;6.87;50.62;99556.81;4821694;29;20164;-92
2023/10/11 16:14:07;;;;;;;10.18;3.28;;;;;;;6.88;50.78;99553.00;4780656;29;20139;-93
2023/10/11 16:16:59;;;;;;;8.70;2.83;;;;;;;7.41;51.54;99615.66;4789930;29;20098;-91
2023/10/11 16:19:50;;;;;;;7.85;3.08;;;;;;;6.96;51.05;99549.69;4828420;29;20122;-91
2023/10/11 16:22:25;;;;;;;8.18;2.88;;;;;;;7.03;50.91;99567.28;4812803;29;20067;-93
2023/10/11 16:25:18;;;;;;;6.25;2.30;;;;;;;7.29;50.67;99610.59;4831467;29;20080;-94
2023/10/11 16:27:51;;;;;;;5.37;2.20;;;;;;;6.78;50.27;99540.28;4824297;29;20034;-91
2023/10/11 16:30:23;;;;;;;11.63;2.95;;;;;;;6.91;50.84;99547.81;4795496;29;20300;-91
2023/10/11 16:33:00;;;;;;;4.75;2.38;;;;;;;7.14;50.75;99570.75;4825965;29;20112;-90
2023/10/11 16:35:28;;;;;;;5.47;2.67;;;;;;;6.59;50.37;99496.72;4851503;29;20065;-93
2023/10/11 16:38:00;;;;;;;8.23;2.45;;;;;;;7.21;50.17;99601.13;4885678;29;20033;-93
2023/10/11 16:40:31;;;;;;;5.82;2.67;;;;;;;6.51;50.97;99483.69;4835487;29;20059;-91
2023/10/11 16:43:02;;;;;;;4.97;2.40;;;;;;;7.19;49.85;99589.75;4884407;29;20074;-92
2023/10/11 16:45:37;;;;;;;4.43;2.40;;;;;;;6.97;49.88;99559.47;4885975;29;20056;-91
2023/10/11 16:48:39;;;;;;;10.18;2.83;;;;;;;6.76;49.62;99518.03;4901510;29;20025;-93
2023/10/11 16:52:02;;;;;;;5.95;2.75;;;;;;;7.32;49.96;99584.72;4914351;29;20113;-96
2023/10/11 16:55:04;;;;;;;5.70;2.80;;;;;;;7.32;49.52;99568.41;4941947;23;20055;31
2023/10/11 16:57:40;;;;;;;8.48;2.72;;;;;;;6.61;49.46;99461.91;4843029;29;20123;-91
2023/10/11 17:00:15;;;;;;;7.93;2.95;;;;;;;6.64;49.71;99474.94;4825871;29;20058;-93
2023/10/11 17:03:13;;;;;;;6.20;2.60;;;;;;;7.21;49.42;99552.19;4827683;29;20045;-94
2023/10/11 17:06:34;;;;;;;6.53;2.50;;;;;;;6.66;49.24;99475.47;4842739;29;20087;-90
2023/10/11 17:09:59;;;;;;;9.55;2.63;;;;;;;6.82;49.64;99498.72;4773195;29;20098;-91
2023/10/11 17:13:29;;;;;;;5.43;3.10;;;;;;;6.91;50.01;99495.38;4786349;29;20039;-87
2023/10/11 17:16:39;;;;;;;6.78;2.78;;;;;;;6.87;49.80;99492.41;4788667;29;20058;-96
2023/10/11 17:19:22;;;;;;;6.82;2.80;;;;;;;7.03;49.22;99523.81;4755521;30;20079;-90
2023/10/11 17:22:04;;;;;;;5.70;2.90;;;;;;;6.93;49.48;99502.16;4698920;30;20054;-91
2023/10/11 17:28:30;;;;;;;7.57;2.85;;;;;;;6.99;49.33;99481.19;4673475;30;20146;-89
2023/10/11 17:31:37;;;;;;;9.23;3.35;;;;;;;7.19;49.41;99519.06;5432706;23;20104;-89
2023/10/11 17:34:05;;;;;;;4.63;2.83;;;;;;;6.80;49.36;99454.69;4846048;29;20127;-87
2023/10/11 17:37:12;;;;;;;5.93;3.58;;;;;;;7.09;49.39;99516.44;4858154;29;20032;-87
2023/10/11 17:40:00;;;;;;;11.10;3.22;;;;;;;6.89;49.49;99478.53;4815963;29;20027;-87
2023/10/11 17:43:12;;;;;;;6.22;3.42;;;;;;;7.07;49.68;99503.09;4842378;29;20062;-87
2023/10/11 17:45:58;;;;;;;5.53;2.92;;;;;;;7.05;49.29;99494.44;4793179;29;20066;-95
2023/10/11 17:48:25;;;;;;;7.22;2.70;;;;;;;6.36;49.09;99378.75;4807264;29;20079;-92
2023/10/11 17:51:43;;;;;;;7.60;3.07;;;;;;;6.59;49.52;99404.34;4825059;29;20047;-95
2023/10/11 18:28:30;;;;;;;4.68;2.83;;;;;;;7.26;48.69;99415.41;4897189;29;20053;-90
2023/10/11 18:31:24;;;;;;;4.43;2.92;;;;;;;7.28;49.30;99405.03;4893538;29;20039;-90
2023/10/11 18:34:12;;;;;;;5.13;3.17;;;;;;;7.32;48.94;99399.81;4896687;29;20519;-93
2023/10/11 18:36:44;;;;;;;5.70;3.33;;;;;;;7.35;48.72;99399.25;4896402;29;20056;-92
2023/10/11 18:39:12;;;;;;;7.30;2.88;;;;;;;7.29;48.91;99382.19;4898330;29;20045;-92
2023/10/11 18:41:40;;;;;;;11.52;3.08;;;;;;;7.24;48.89;99380.31;4900908;29;20036;-92
2023/10/11 18:44:14;;;;;;;5.38;3.08;;;;;;;6.96;48.92;99335.00;4879203;29;20041;-90
2023/10/11 18:46:43;;;;;;;6.70;3.20;;;;;;;7.25;48.65;99379.25;4896422;29;20586;-89
2023/10/11 19:07:05;;;;;;;5.78;2.80;;;;;;;6.58;49.00;99218.84;5211862;23;20100;-91
2023/10/11 19:10:37;;;;;;;5.53;2.60;;;;;;;7.30;48.79;99335.66;4911805;29;20045;-93
2023/10/11 19:13:23;;;;;;;8.70;2.80;;;;;;;7.03;48.83;99283.81;4903685;29;20116;-92
2023/10/11 19:16:33;;;;;;;5.35;3.00;;;;;;;7.04;49.29;99282.72;4929607;29;20020;-90
2023/10/11 19:19:22;;;;;;;7.45;2.70;;;;;;;7.04;49.28;99280.00;4877492;29;20101;-94
2023/10/11 19:22:33;;;;;;;4.68;2.72;;;;;;;6.79;49.11;99235.72;4890587;29;20072;-92
2023/10/11 19:25:22;;;;;;;10.13;3.00;;;;;;;6.99;49.51;99253.69;4892207;29;20032;-92
2023/10/11 19:28:37;;;;;;;4.93;2.80;;;;;;;7.36;49.58;99308.44;4885182;29;20048;-93
2023/10/11 19:31:10;;;;;;;7.30;2.60;;;;;;;7.34;49.44;99295.09;4893557;29;20067;-91
2023/10/11 19:33:39;;;;;;;5.57;2.70;;;;;;;7.32;49.73;99288.34;4885607;29;20040;-91
2023/10/11 19:36:09;;;;;;;6.65;2.88;;;;;;;7.37;49.77;99299.97;4847063;29;20063;-91
2023/10/11 19:38:37;;;;;;;4.45;3.03;;;;;;;7.36;49.82;99281.22;4882678;29;20060;-92
2023/10/11 19:41:15;;;;;;;8.35;2.97;;;;;;;6.84;49.87;99196.81;4864393;29;20064;-91
2023/10/11 19:43:45;;;;;;;5.40;3.00;;;;;;;7.41;49.94;99276.50;4893973;29;20048;-92
2023/10/11 19:46:19;;;;;;;5.68;2.60;;;;;;;7.39;49.57;99264.34;4847799;29;20076;-91
2023/10/11 19:48:48;;;;;;;8.38;2.67;;;;;;;6.87;49.75;99165.53;4861221;29;20046;-91
2023/10/11 19:51:22;;;;;;;6.68;2.40;;;;;;;7.11;49.56;99195.38;4841199;29;20116;-93
2023/10/11 19:54:14;;;;;;;8.48;2.78;;;;;;;7.11;49.44;99185.31;4868462;29;20075;-94
2023/10/11 19:56:43;;;;;;;8.07;2.85;;;;;;;6.98;49.50;99156.94;4813063;29;20054;-92
2023/10/11 19:59:43;;;;;;;6.50;2.80;;;;;;;7.47;49.39;99231.03;4810130;29;20063;-93
2023/10/11 20:02:29;;;;;;;8.32;2.75;;;;;;;7.63;49.76;99247.94;4754198;30;20083;-94
2023/10/11 20:05:16;;;;;;;4.13;2.85;;;;;;;7.39;49.71;99189.00;4782098;30;20055;-94
2023/10/11 20:07:54;;;;;;;4.65;2.47;;;;;;;7.06;49.38;99134.56;4788700;29;20147;-91
2023/10/11 20:10:30;;;;;;;8.30;2.70;;;;;;;7.42;49.21;99176.72;4791167;30;20066;-91
2023/10/11 20:12:57;;;;;;;;;;;;;;;7.69;49.45;99225.78;4791295;29;20055;-93
2023/10/11 20:15:27;;;;;;;7.20;2.75;;;;;;;7.25;49.73;99159.03;4791917;30;19918;-92
2023/10/11 20:18:12;;;;;;;6.65;2.50;;;;;;;7.04;50.30;99112.28;4808767;29;20034;-95
2023/10/11 20:20:46;;;;;;;8.00;2.28;;;;;;;7.66;50.87;99212.78;4829216;29;20078;-93
2023/10/11 20:23:21;;;;;;;4.63;2.65;;;;;;;7.01;51.06;99106.63;4788016;29;20038;-94
2023/10/11 20:26:15;;;;;;;6.35;2.60;;;;;;;6.96;51.40;99084.97;4814237;29;20114;-92
2023/10/11 20:28:45;;;;;;;4.97;2.60;;;;;;;7.66;51.75;99193.75;4820744;29;20065;-92
2023/10/11 20:31:13;;;;;;;5.80;2.50;;;;;;;6.96;51.96;99088.50;4812298;29;20054;-92
2023/10/11 20:34:04;;;;;;;5.65;2.40;;;;;;;7.61;52.47;99187.56;4830297;29;20047;-93
2023/10/11 20:36:41;;;;;;;12.85;2.50;;;;;;;6.99;53.66;99077.03;4832479;29;20046;-92
2023/10/11 20:39:15;;;;;;;6.20;2.92;;;;;;;7.43;53.80;99141.06;4844162;29;20372;-93
2023/10/11 20:41:54;;;;;;;5.20;2.72;;;;;;;6.99;54.54;99077.03;4869206;29;20082;-92
2023/10/11 20:44:59;;;;;;;5.22;2.38;;;;;;;7.33;55.26;99135.78;4880991;29;20049;-92
2023/10/11 20:47:41;;;;;;;4.30;2.35;;;;;;;7.39;56.90;99150.91;4801685;29;20107;-92
2023/10/11 20:50:44;;;;;;;5.05;2.40;;;;;;;7.41;56.62;99147.88;4782317;29;20031;-89
2023/10/11 20:54:15;;;;;;;4.23;2.37;;;;;;;7.38;58.19;99151.19;4834508;29;20054;-89
2023/10/11 20:58:29;;;;;;;4.13;2.17;;;;;;;7.33;59.20;99151.28;4812316;29;20036;-88
2023/10/11 21:05:25;;;;;;;5.18;2.70;;;;;;;7.15;61.10;99126.56;4752406;30;20036;-87
2023/10/11 21:08:51;;;;;;;6.80;2.80;;;;;;;7.12;61.77;99121.72;4649289;30;20059;-91
2023/10/11 21:12:32;;;;;;;3.92;2.60;;;;;;;6.38;61.68;99001.88;4621491;30;20084;-87
2023/10/11 21:16:00;;;;;;;3.78;2.25;;;;;;;6.90;62.20;99067.13;4648222;30;20129;-88
2023/10/11 21:18:38;;;;;;;6.40;2.65;;;;;;;6.96;63.20;99083.06;4667437;30;20058;-86
2023/10/11 21:22:06;;;;;;;9.88;3.10;;;;;;;6.98;63.54;99082.75;4686908;30;20043;-88
2023/10/11 21:25:36;;;;;;;4.00;2.35;;;;;;;6.94;64.64;99084.47;4721982;30;20044;-91
2023/10/11 21:28:34;;;;;;;7.88;3.05;;;;;;;6.89;65.02;99071.78;4736199;30;20041;-89
2023/10/11 21:31:39;;;;;;;5.95;2.92;;;;;;;6.31;65.95;98983.22;4739052;30;20069;-95
2023/10/11 21:35:34;;;;;;;8.60;2.80;;;;;;;6.69;67.27;99048.41;4703894;30;20038;-88
2023/10/11 21:39:42;;;;;;;6.28;2.80;;;;;;;6.64;68.03;99048.47;4686678;30;20038;-92
2023/10/11 21:42:12;;;;;;;5.63;2.78;;;;;;;6.14;69.90;98969.34;4687040;30;20056;-91
2023/10/11 21:49:26;;;;;;;8.27;3.35;;;;;;;6.28;71.12;99012.88;4755154;30;20048;-95
2023/10/11 21:53:03;;;;;;;4.28;2.65;;;;;;;6.49;72.00;99043.25;4754108;30;20056;-96
2023/10/11 21:55:57;;;;;;;11.57;2.97;;;;;;;6.26;73.29;99005.03;4754321;30;20059;-96
2023/10/11 21:58:57;;;;;;;6.72;3.25;;;;;;;5.84;73.41;98937.97;4752682;30;20086;-95
2023/10/11 22:01:45;;;;;;;7.07;3.20;;;;;;;6.04;73.94;98977.63;4777416;30;20435;-95
2023/10/11 22:04:29;;;;;;;7.53;3.15;;;;;;;6.25;74.39;99000.69;4791505;30;20048;-93
2023/10/11 22:08:18;;;;;;;6.28;3.15;;;;;;;6.21;75.39;99001.56;4805218;29;20047;-93
2023/10/11 22:11:29;;;;;;;6.80;3.28;;;;;;;6.02;76.00;98958.13;4781383;30;20039;-93
2023/10/11 22:14:38;;;;;;;6.90;3.42;;;;;;;6.28;76.76;98991.94;4808910;29;20027;-88
2023/10/11 22:17:22;;;;;;;5.90;3.17;;;;;;;6.30;77.11;98986.25;4809147;29;20051;-91
2023/10/11 22:21:02;;;;;;;5.82;3.35;;;;;;;6.32;76.79;98981.31;4845701;29;20063;-90
2023/10/11 22:23:34;;;;;;;5.28;3.22;;;;;;;6.19;77.46;98957.63;4815729;29;20054;-96
2023/10/11 22:27:29;;;;;;;7.57;3.67;;;;;;;6.26;77.44;98985.22;4845197;29;20039;-87
2023/10/11 22:31:18;;;;;;;7.88;3.05;;;;;;;6.24;77.90;98976.56;4844888;29;20038;-95
2023/10/11 22:33:46;;;;;;;6.10;3.65;;;;;;;6.13;78.41;98943.31;4951034;23;20029;-88
2023/10/11 22:36:38;;;;;;;5.53;3.03;;;;;;;6.22;78.14;98938.03;4903454;29;20021;-87
2023/10/11 22:40:00;;;;;;;5.95;3.53;;;;;;;6.11;78.39;98899.38;4903382;29;20044;-88
2023/10/11 22:42:54;;;;;;;5.63;3.15;;;;;;;6.04;78.69;98890.81;4883772;29;20045;-88
2023/10/11 22:45:53;;;;;;;5.25;2.88;;;;;;;6.23;78.73;98932.31;4868253;29;20040;-94
2023/10/11 22:48:19;;;;;;;6.00;3.17;;;;;;;5.90;78.52;98879.84;4864116;29;20041;-88
2023/10/11 22:50:45;;;;;;;7.97;3.55;;;;;;;6.14;78.50;98908.84;4857423;29;20097;-91
2023/10/11 22:53:13;;;;;;;8.30;3.63;;;;;;;6.10;78.73;98892.34;4851997;29;20507;-89
2023/10/11 22:55:41;;;;;;;7.65;3.13;;;;;;;6.35;78.07;98910.16;4817323;29;20444;-87
2023/10/11 22:58:07;;;;;;;6.73;3.47;;;;;;;6.00;77.94;98858.03;4820489;29;20059;-88
2023/10/11 23:00:33;;;;;;;7.78;3.83;;;;;;;6.38;78.11;98909.56;4819596;29;20326;-91
2023/10/11 23:03:12;;;;;;;5.88;3.35;;;;;;;6.09;78.19;98866.31;4812578;29;20062;-89
2023/10/11 23:05:40;;;;;;;10.95;3.50;;;;;;;6.39;77.64;98884.06;4799499;29;20122;-88
2023/10/11 23:08:18;;;;;;;5.15;3.08;;;;;;;6.10;77.56;98829.94;4800848;29;20058;-91
2023/10/11 23:10:49;;;;;;;6.60;3.22;;;;;;;6.20;77.08;98843.34;4782295;29;20031;-88
2023/10/11 23:13:36;;;;;;;6.15;3.58;;;;;;;6.37;77.25;98853.66;4815459;29;20063;-89
2023/10/11 23:16:06;;;;;;;6.40;3.58;;;;;;;6.37;77.16;98856.38;4800225;29;20047;-89
2023/10/11 23:18:57;;;;;;;7.20;3.80;;;;;;;6.48;77.56;98863.25;4820316;29;20034;-88
2023/10/11 23:21:28;;;;;;;7.53;3.33;;;;;;;6.14;76.73;98811.16;4837372;29;20060;-89
2023/10/11 23:24:38;;;;;;;9.35;3.60;;;;;;;6.58;76.65;98854.13;4862987;29;20026;-88
2023/10/11 23:27:12;;;;;;;7.38;3.15;;;;;;;6.27;75.66;98811.19;4842490;29;20033;-88
2023/10/11 23:29:45;;;;;;;10.10;3.55;;;;;;;6.39;75.32;98816.19;4839127;29;20088;-88
2023/10/11 23:32:20;;;;;;;10.30;4.00;;;;;;;6.70;75.33;98851.75;4825264;29;20054;-87
2023/10/11 23:34:50;;;;;;;6.18;3.30;;;;;;;6.55;74.94;98824.84;4819566;29;20047;-90
2023/10/11 23:37:29;;;;;;;5.25;3.05;;;;;;;6.40;74.66;98806.13;4836645;29;20034;-90